Time;durP1;ratioP1;P1;durP2;ratioP2;P2;SDS_P1;SDS_P2;PMS_P1;PMS_P2;Temp;Humidity;BMP_temperature;BMP_pressure;BME280_temperature;BME280_humidity;BME280_pressure;Samples;Min_cycle;Max_cycle;Signal;HPM_P1;HPM_P2
2023/01/05 00:01:05;;;;;;;49.95;45.95;;;;;;;;;;9997608;28;20056;-68
2023/01/05 00:06:06;;;;;;;47.22;43.72;;;;;;;;;;10015042;28;20044;-67
2023/01/05 00:26:48;;;;;;;39.78;37.13;;;;;;;;;;10004961;29;20043;-67
2023/01/05 00:31:44;;;;;;;38.92;36.17;;;;;;;;;;10008604;28;20052;-67
2023/01/05 00:36:41;;;;;;;40.42;37.45;;;;;;;;;;10008160;28;20050;-68
2023/01/05 00:41:37;;;;;;;38.10;35.05;;;;;;;;;;9996099;28;20131;-67
2023/01/05 00:46:33;;;;;;;36.95;34.25;;;;;;;;;;10000536;29;20132;-67
2023/01/05 00:51:30;;;;;;;40.22;36.60;;;;;;;;;;10006493;28;20060;-67
2023/01/05 00:56:26;;;;;;;36.67;33.72;;;;;;;;;;10016129;28;20710;-69
2023/01/05 01:01:22;;;;;;;31.33;28.80;;;;;;;;;;9996078;28;20166;-69
2023/01/05 01:06:18;;;;;;;29.75;27.65;;;;;;;;;;10005936;28;20099;-68
2023/01/05 01:11:15;;;;;;;30.27;27.77;;;;;;;;;;10010921;28;20079;-69
2023/01/05 01:16:12;;;;;;;32.72;30.17;;;;;;;;;;10002012;28;20046;-69
2023/01/05 01:21:09;;;;;;;30.35;28.08;;;;;;;;;;10005386;29;20048;-69
2023/01/05 01:26:06;;;;;;;26.85;25.08;;;;;;;;;;10006412;29;20078;-69
2023/01/05 01:31:02;;;;;;;26.42;23.58;;;;;;;;;;10007880;28;20048;-69
2023/01/05 01:36:02;;;;;;;25.35;23.02;;;;;;;;;;10002349;29;20119;-66
2023/01/05 01:40:58;;;;;;;22.88;20.95;;;;;;;;;;10008926;28;20058;-66
2023/01/05 01:45:54;;;;;;;21.42;19.58;;;;;;;;;;10005119;28;20152;-66
2023/01/05 01:50:52;;;;;;;23.55;21.25;;;;;;;;;;10000456;28;20502;-67
2023/01/05 01:55:49;;;;;;;21.52;19.88;;;;;;;;;;10010741;28;20075;-67
2023/01/05 02:00:46;;;;;;;21.55;19.55;;;;;;;;;;10011659;29;20656;-66
2023/01/05 02:05:42;;;;;;;21.05;19.30;;;;;;;;;;10010991;29;20079;-66
2023/01/05 02:10:52;;;;;;;19.70;18.13;;;;;;;;;;10017197;28;20055;-66
2023/01/05 02:15:57;;;;;;;19.05;17.30;;;;;;;;;;10014945;28;20059;-67
2023/01/05 02:21:02;;;;;;;19.67;17.83;;;;;;;;;;10011389;28;20775;-67
2023/01/05 02:26:09;;;;;;;19.10;17.33;;;;;;;;;;10018404;28;20722;-66
2023/01/05 02:31:21;;;;;;;20.95;19.13;;;;;;;;;;10017148;28;20510;-69
2023/01/05 02:36:23;;;;;;;15.32;13.88;;;;;;;;;;10029737;28;20044;-67
2023/01/05 02:41:36;;;;;;;15.18;13.48;;;;;;;;;;10011097;28;20103;-67
2023/01/05 02:46:32;;;;;;;17.63;13.82;;;;;;;;;;10026689;29;20067;-67
2023/01/05 02:51:32;;;;;;;14.50;13.23;;;;;;;;;;10021309;28;20072;-67
2023/01/05 02:56:43;;;;;;;17.40;12.98;;;;;;;;;;10017027;28;20135;-68
2023/01/05 03:01:41;;;;;;;14.05;12.60;;;;;;;;;;10006872;28;21379;-70
2023/01/05 03:06:45;;;;;;;13.85;12.05;;;;;;;;;;10012799;29;20067;-69
2023/01/05 03:17:00;;;;;;;12.77;11.68;;;;;;;;;;10016483;28;20075;-68
2023/01/05 03:37:50;;;;;;;13.90;12.00;;;;;;;;;;10027268;28;20052;-66
2023/01/05 03:42:47;;;;;;;13.90;12.07;;;;;;;;;;10016957;28;20135;-68
2023/01/05 03:47:43;;;;;;;12.98;12.00;;;;;;;;;;10020615;29;20052;-68
2023/01/05 03:52:39;;;;;;;13.88;12.48;;;;;;;;;;10008507;28;20052;-68
2023/01/05 03:57:35;;;;;;;15.75;13.00;;;;;;;;;;10015982;29;20438;-67
2023/01/05 04:02:32;;;;;;;13.48;12.18;;;;;;;;;;10023942;28;20099;-66
2023/01/05 04:07:28;;;;;;;13.95;12.55;;;;;;;;;;10011756;28;20126;-67
2023/01/05 04:12:25;;;;;;;12.07;10.95;;;;;;;;;;10012081;28;20068;-65
2023/01/05 04:17:21;;;;;;;13.13;11.65;;;;;;;;;;10018080;28;20052;-66
2023/01/05 04:22:17;;;;;;;14.60;13.15;;;;;;;;;;10022373;28;20528;-67
2023/01/05 04:27:22;;;;;;;17.80;14.00;;;;;;;;;;10016197;28;20506;-67
2023/01/05 04:32:18;;;;;;;19.88;15.98;;;;;;;;;;10025619;28;20056;-67
2023/01/05 04:37:14;;;;;;;15.63;14.10;;;;;;;;;;10013850;29;20047;-65
2023/01/05 04:42:10;;;;;;;19.65;15.15;;;;;;;;;;10017822;28;20048;-66
2023/01/05 04:47:07;;;;;;;17.13;14.77;;;;;;;;;;10007906;29;20533;-66
2023/01/05 04:52:03;;;;;;;18.00;16.05;;;;;;;;;;10018218;28;20056;-67
2023/01/05 04:56:59;;;;;;;16.67;14.93;;;;;;;;;;10015742;28;20062;-70
2023/01/05 05:01:56;;;;;;;16.88;15.23;;;;;;;;;;10020109;28;20056;-68
2023/01/05 05:06:52;;;;;;;17.88;15.93;;;;;;;;;;10010305;28;20044;-68
2023/01/05 05:11:48;;;;;;;18.48;16.85;;;;;;;;;;10022126;28;20051;-67
2023/01/05 05:16:45;;;;;;;18.38;16.75;;;;;;;;;;10018899;28;20055;-68
2023/01/05 05:21:41;;;;;;;18.98;17.15;;;;;;;;;;10015109;28;20549;-70
2023/01/05 05:26:37;;;;;;;23.20;18.05;;;;;;;;;;10014921;28;20063;-67
2023/01/05 05:31:34;;;;;;;19.38;16.35;;;;;;;;;;10014999;28;20071;-67
2023/01/05 05:36:31;;;;;;;18.88;16.15;;;;;;;;;;10008646;28;20051;-66
2023/01/05 05:41:27;;;;;;;16.63;15.38;;;;;;;;;;9999566;28;20104;-66
2023/01/05 05:46:24;;;;;;;16.75;15.13;;;;;;;;;;10003109;28;20047;-69
2023/01/05 05:51:20;;;;;;;16.65;15.18;;;;;;;;;;10006840;28;20044;-67
2023/01/05 05:56:17;;;;;;;18.83;15.07;;;;;;;;;;10010266;28;20517;-67
2023/01/05 06:01:13;;;;;;;17.48;14.90;;;;;;;;;;10008090;28;20052;-66
2023/01/05 06:06:09;;;;;;;16.58;14.88;;;;;;;;;;10012735;28;20422;-67
2023/01/05 06:11:06;;;;;;;14.48;13.38;;;;;;;;;;10018677;29;20530;-69
2023/01/05 06:16:03;;;;;;;17.02;15.38;;;;;;;;;;10006612;28;20040;-69
2023/01/05 06:21:00;;;;;;;16.95;15.20;;;;;;;;;;10008595;28;20111;-69
2023/01/05 06:25:57;;;;;;;17.52;15.65;;;;;;;;;;10001637;29;20047;-69
2023/01/05 06:30:53;;;;;;;22.55;17.23;;;;;;;;;;10004023;28;20490;-69
2023/01/05 06:35:50;;;;;;;19.17;16.38;;;;;;;;;;10010674;28;20426;-70
2023/01/05 06:40:46;;;;;;;19.95;16.27;;;;;;;;;;10021980;28;20459;-70
2023/01/05 06:45:43;;;;;;;17.77;15.88;;;;;;;;;;10020427;28;20052;-69
2023/01/05 06:50:39;;;;;;;18.30;16.60;;;;;;;;;;10023325;28;20047;-69
2023/01/05 06:55:35;;;;;;;16.98;15.18;;;;;;;;;;10016369;29;20055;-69
2023/01/05 07:00:31;;;;;;;16.05;14.45;;;;;;;;;;10021401;28;20052;-69
2023/01/05 07:05:30;;;;;;;16.58;14.90;;;;;;;;;;10006154;29;20055;-69
2023/01/05 07:10:27;;;;;;;19.60;14.82;;;;;;;;;;10005556;28;20048;-71
2023/01/05 07:15:23;;;;;;;14.52;13.15;;;;;;;;;;10005813;29;20108;-70
2023/01/05 07:20:19;;;;;;;15.05;11.93;;;;;;;;;;10007651;28;20044;-69
2023/01/05 07:25:16;;;;;;;20.52;12.05;;;;;;;;;;10011960;29;20068;-70
2023/01/05 07:30:12;;;;;;;17.25;11.77;;;;;;;;;;10013859;28;20051;-70
2023/01/05 07:35:09;;;;;;;20.25;12.65;;;;;;;;;;10005409;29;20056;-69
2023/01/05 07:40:05;;;;;;;16.33;13.63;;;;;;;;;;10014012;28;20062;-70
2023/01/05 07:45:02;;;;;;;22.10;13.30;;;;;;;;;;10014345;28;20074;-69
2023/01/05 07:49:58;;;;;;;19.92;14.00;;;;;;;;;;10020170;29;20084;-72
2023/01/05 07:54:54;;;;;;;18.92;14.27;;;;;;;;;;10017792;28;20047;-72
2023/01/05 07:59:51;;;;;;;21.35;14.55;;;;;;;;;;10019340;28;20058;-71
2023/01/05 08:04:47;;;;;;;17.75;14.85;;;;;;;;;;10016015;29;20095;-72
2023/01/05 08:14:58;;;;;;;21.77;16.52;;;;;;;;;;10017881;29;20062;-70
2023/01/05 08:19:55;;;;;;;21.17;15.30;;;;;;;;;;10013225;28;20048;-70
2023/01/05 08:24:51;;;;;;;19.30;15.73;;;;;;;;;;10008670;28;20054;-71
2023/01/05 08:29:47;;;;;;;21.35;14.82;;;;;;;;;;10017551;28;20040;-70
2023/01/05 08:34:44;;;;;;;20.63;17.45;;;;;;;;;;10018873;28;20097;-70
2023/01/05 08:39:47;;;;;;;31.40;27.00;;;;;;;;;;10004034;28;20522;-70
2023/01/05 08:44:43;;;;;;;39.85;35.83;;;;;;;;;;10020180;29;20422;-70
2023/01/05 08:49:40;;;;;;;46.58;43.40;;;;;;;;;;10016063;29;20051;-71
2023/01/05 08:54:36;;;;;;;48.30;44.38;;;;;;;;;;10019299;28;20048;-70
2023/01/05 08:59:32;;;;;;;48.38;45.15;;;;;;;;;;10017284;28;20055;-70
2023/01/05 09:04:29;;;;;;;49.65;46.13;;;;;;;;;;10017379;28;20140;-70
2023/01/05 09:09:25;;;;;;;49.92;45.42;;;;;;;;;;10013939;28;20135;-70
2023/01/05 09:14:21;;;;;;;56.58;52.25;;;;;;;;;;10014142;28;20067;-68
2023/01/05 09:19:19;;;;;;;54.15;50.47;;;;;;;;;;10004017;28;20063;-68
2023/01/05 09:24:15;;;;;;;56.35;52.28;;;;;;;;;;10024798;28;20080;-68
2023/01/05 09:29:12;;;;;;;52.83;48.30;;;;;;;;;;10025500;28;20633;-68
2023/01/05 09:34:08;;;;;;;54.50;50.40;;;;;;;;;;10008392;28;20163;-68
2023/01/05 09:39:05;;;;;;;51.30;47.50;;;;;;;;;;10014194;28;20075;-68
2023/01/05 09:44:04;;;;;;;53.65;49.83;;;;;;;;;;10014847;28;20059;-68
2023/01/05 09:49:02;;;;;;;53.88;49.58;;;;;;;;;;10010651;28;20159;-68
2023/01/05 09:53:59;;;;;;;45.92;42.90;;;;;;;;;;10003589;28;20044;-70
2023/01/05 09:59:09;;;;;;;43.95;40.33;;;;;;;;;;10018803;28;20067;-70
2023/01/05 10:04:14;;;;;;;42.70;39.20;;;;;;;;;;10014957;28;20062;-67
2023/01/05 10:09:19;;;;;;;43.38;37.65;;;;;;;;;;10008060;28;20495;-67
2023/01/05 10:14:17;;;;;;;42.28;38.30;;;;;;;;;;10015397;28;20059;-70
2023/01/05 10:19:14;;;;;;;35.95;32.08;;;;;;;;;;10026720;28;20079;-69
2023/01/05 10:24:14;;;;;;;30.48;27.63;;;;;;;;;;10022990;28;20478;-70
2023/01/05 10:29:12;;;;;;;28.90;26.02;;;;;;;;;;10008881;28;20061;-70
2023/01/05 10:34:12;;;;;;;31.40;23.73;;;;;;;;;;10022052;28;20048;-70
2023/01/05 10:39:11;;;;;;;;;;;;;;;;;;10026436;28;20050;-69
2023/01/05 10:44:26;;;;;;;26.63;23.88;;;;;;;;;;10026139;28;19927;-70
2023/01/05 10:49:28;;;;;;;30.90;23.10;;;;;;;;;;10022860;28;20086;-70
2023/01/05 10:54:30;;;;;;;36.83;21.38;;;;;;;;;;10022683;28;20056;-70
2023/01/05 10:59:27;;;;;;;22.45;20.15;;;;;;;;;;10021579;28;20059;-70
2023/01/05 11:04:23;;;;;;;24.20;21.60;;;;;;;;;;10023360;28;20118;-70
2023/01/05 11:09:30;;;;;;;28.33;22.52;;;;;;;;;;10018981;28;20058;-70
2023/01/05 11:14:34;;;;;;;28.27;25.10;;;;;;;;;;10009861;28;20056;-70
2023/01/05 11:19:33;;;;;;;29.20;26.42;;;;;;;;;;10016980;28;20048;-70
2023/01/05 11:24:31;;;;;;;29.02;26.58;;;;;;;;;;10022951;28;20445;-70
2023/01/05 11:29:28;;;;;;;32.25;26.88;;;;;;;;;;10009456;28;20051;-70
2023/01/05 11:34:24;;;;;;;28.52;25.90;;;;;;;;;;10012545;29;20526;-70
2023/01/05 11:39:29;;;;;;;27.25;25.10;;;;;;;;;;10017987;28;20131;-70
2023/01/05 11:44:25;;;;;;;26.80;23.52;;;;;;;;;;10022542;28;20055;-70
2023/01/05 11:49:22;;;;;;;23.27;20.83;;;;;;;;;;10018848;28;20050;-69
2023/01/05 11:54:30;;;;;;;23.65;20.52;;;;;;;;;;10017093;28;20103;-69
2023/01/05 11:59:29;;;;;;;20.48;18.42;;;;;;;;;;10028084;28;20421;-70
2023/01/05 12:04:29;;;;;;;22.10;19.60;;;;;;;;;;10021300;29;20059;-70
2023/01/05 12:09:30;;;;;;;23.42;17.98;;;;;;;;;;10013829;28;20062;-70
2023/01/05 12:14:49;;;;;;;19.75;17.75;;;;;;;;;;10019350;28;20127;-70
2023/01/05 12:20:07;;;;;;;20.17;16.75;;;;;;;;;;10017082;28;20102;-70
2023/01/05 12:25:23;;;;;;;21.92;16.73;;;;;;;;;;10008940;28;20082;-70
2023/01/05 12:30:41;;;;;;;19.00;16.83;;;;;;;;;;10016536;28;20111;-69
2023/01/05 12:36:06;;;;;;;19.17;17.40;;;;;;;;;;10014625;28;20445;-70
2023/01/05 12:41:16;;;;;;;20.35;17.35;;;;;;;;;;10015871;29;20147;-70
2023/01/05 12:46:29;;;;;;;23.73;18.88;;;;;;;;;;10016459;28;20131;-70
2023/01/05 12:51:27;;;;;;;18.97;17.30;;;;;;;;;;10016490;29;20106;-70
2023/01/05 12:56:33;;;;;;;20.90;18.05;;;;;;;;;;10000039;28;21132;-70
2023/01/05 13:01:31;;;;;;;19.27;17.38;;;;;;;;;;10011711;28;20142;-70
2023/01/05 13:06:32;;;;;;;17.92;14.60;;;;;;;;;;10016711;28;20407;-70
2023/01/05 13:11:43;;;;;;;16.40;14.88;;;;;;;;;;10014955;28;20499;-70
2023/01/05 13:16:44;;;;;;;17.02;15.40;;;;;;;;;;10015609;29;20055;-70
2023/01/05 13:21:42;;;;;;;15.07;13.63;;;;;;;;;;10015402;28;20118;-70
2023/01/05 13:26:39;;;;;;;15.25;12.70;;;;;;;;;;10014657;28;20101;-70
2023/01/05 13:31:35;;;;;;;14.57;13.15;;;;;;;;;;10017030;28;20048;-70
2023/01/05 13:36:55;;;;;;;13.10;11.98;;;;;;;;;;10006786;28;20043;-70
2023/01/05 13:42:10;;;;;;;15.13;12.98;;;;;;;;;;10008855;28;20052;-71
2023/01/05 13:47:29;;;;;;;13.25;11.82;;;;;;;;;;10002642;28;20136;-70
2023/01/05 13:52:45;;;;;;;24.70;14.23;;;;;;;;;;10012704;28;20083;-68
2023/01/05 13:57:42;;;;;;;15.25;12.30;;;;;;;;;;10020165;28;20067;-68
2023/01/05 14:02:40;;;;;;;14.75;13.23;;;;;;;;;;10003432;28;20051;-69
2023/01/05 14:07:38;;;;;;;14.70;13.20;;;;;;;;;;9997573;28;20510;-70
2023/01/05 14:12:42;;;;;;;13.63;12.52;;;;;;;;;;10016667;28;20541;-70
2023/01/05 14:17:51;;;;;;;14.23;12.77;;;;;;;;;;10014121;28;20092;-70
2023/01/05 14:22:47;;;;;;;14.45;13.00;;;;;;;;;;10016416;28;20044;-70
2023/01/05 14:28:22;;;;;;;14.77;13.27;;;;;;;;;;9996644;28;20514;-71
2023/01/05 14:33:19;;;;;;;15.50;13.32;;;;;;;;;;9967958;29;20048;-70
2023/01/05 14:38:18;;;;;;;16.33;14.00;;;;;;;;;;9969888;28;68282;-71
2023/01/05 14:43:34;;;;;;;16.70;15.18;;;;;;;;;;10022149;28;20048;-71
2023/01/05 14:48:30;;;;;;;18.60;16.80;;;;;;;;;;10036057;28;20095;-71
2023/01/05 14:53:38;;;;;;;21.80;19.40;;;;;;;;;;10025998;28;20051;-70
2023/01/05 14:58:35;;;;;;;22.27;19.33;;;;;;;;;;10021291;28;20190;-71
2023/01/05 15:03:31;;;;;;;23.02;21.15;;;;;;;;;;10019403;28;20058;-70
2023/01/05 15:08:49;;;;;;;24.30;22.33;;;;;;;;;;10027409;28;20051;-70
2023/01/05 15:14:30;;;;;;;27.42;25.13;;;;;;;;;;10026652;28;20130;-70
2023/01/05 15:19:11;;;;;;;30.38;27.80;;;;;;;;;;10026201;28;20067;-70
2023/01/05 15:24:27;;;;;;;30.15;27.38;;;;;;;;;;10036187;28;20130;-71
2023/01/05 15:29:40;;;;;;;29.42;26.90;;;;;;;;;;10036365;28;20398;-71
2023/01/05 15:34:42;;;;;;;30.95;28.67;;;;;;;;;;10036739;28;20055;-71
2023/01/05 15:39:52;;;;;;;32.97;30.17;;;;;;;;;;10034942;28;20043;-70
2023/01/05 15:44:50;;;;;;;32.65;29.92;;;;;;;;;;10029917;28;20410;-70
2023/01/05 15:49:47;;;;;;;32.15;29.27;;;;;;;;;;10040099;28;20410;-70
2023/01/05 15:54:55;;;;;;;32.65;30.00;;;;;;;;;;10037820;28;20043;-70
2023/01/05 15:59:51;;;;;;;31.88;29.45;;;;;;;;;;10041133;28;20062;-70
2023/01/05 16:05:05;;;;;;;32.28;29.27;;;;;;;;;;10040027;28;20136;-70
2023/01/05 16:10:02;;;;;;;32.08;29.33;;;;;;;;;;10035801;28;20505;-70
2023/01/05 16:15:03;;;;;;;33.40;30.60;;;;;;;;;;10029227;29;20139;-71
2023/01/05 16:20:06;;;;;;;33.22;30.30;;;;;;;;;;10033061;29;20505;-71
2023/01/05 16:25:05;;;;;;;31.85;28.95;;;;;;;;;;10033288;28;20047;-70
2023/01/05 16:30:20;;;;;;;30.92;27.85;;;;;;;;;;10029566;28;20086;-69
2023/01/05 16:35:28;;;;;;;32.20;29.08;;;;;;;;;;10023614;28;20079;-71
2023/01/05 16:40:24;;;;;;;33.45;30.42;;;;;;;;;;10029289;28;20064;-71
2023/01/05 16:45:24;;;;;;;30.77;28.05;;;;;;;;;;10030188;28;20052;-70
2023/01/05 16:50:21;;;;;;;30.10;27.08;;;;;;;;;;10030068;28;20054;-70
2023/01/05 16:55:43;;;;;;;30.92;28.10;;;;;;;;;;10027312;28;20083;-70
2023/01/05 17:00:40;;;;;;;33.17;30.35;;;;;;;;;;10022889;28;20578;-70
2023/01/05 17:05:36;;;;;;;34.42;31.73;;;;;;;;;;10028670;28;20050;-70
2023/01/05 17:10:32;;;;;;;33.45;30.55;;;;;;;;;;10024079;28;20421;-70
2023/01/05 17:15:31;;;;;;;34.88;31.55;;;;;;;;;;10040004;28;20051;-70
2023/01/05 17:20:30;;;;;;;31.85;29.42;;;;;;;;;;10020084;28;20051;-69
2023/01/05 17:25:30;;;;;;;32.42;30.08;;;;;;;;;;10021911;28;20055;-70
2023/01/05 17:30:27;;;;;;;36.85;33.50;;;;;;;;;;10025598;28;20140;-71
2023/01/05 17:35:23;;;;;;;33.90;31.10;;;;;;;;;;10030923;28;20048;-71
2023/01/05 17:40:20;;;;;;;34.33;31.52;;;;;;;;;;10024206;28;20069;-70
2023/01/05 17:45:18;;;;;;;37.03;31.75;;;;;;;;;;10024528;28;20066;-70
2023/01/05 17:50:16;;;;;;;33.35;30.70;;;;;;;;;;10028348;28;20048;-70
2023/01/05 17:55:12;;;;;;;33.47;30.73;;;;;;;;;;10024164;28;20051;-70
2023/01/05 18:00:10;;;;;;;35.92;33.30;;;;;;;;;;10020854;28;20044;-70
2023/01/05 18:05:07;;;;;;;35.28;31.83;;;;;;;;;;10025229;28;20052;-70
2023/01/05 18:10:05;;;;;;;40.90;36.28;;;;;;;;;;10013380;28;20130;-69
2023/01/05 18:15:03;;;;;;;40.20;36.42;;;;;;;;;;10018065;28;20044;-69
2023/01/05 18:20:00;;;;;;;42.58;38.55;;;;;;;;;;10026172;29;20138;-70
2023/01/05 18:24:56;;;;;;;39.95;36.72;;;;;;;;;;10020727;28;20078;-70
2023/01/05 18:29:53;;;;;;;41.22;37.30;;;;;;;;;;10008125;28;20068;-70
2023/01/05 18:34:49;;;;;;;40.17;37.03;;;;;;;;;;10021465;28;20151;-70
2023/01/05 18:39:46;;;;;;;41.65;38.47;;;;;;;;;;10035039;28;20082;-70
2023/01/05 18:44:42;;;;;;;46.25;42.05;;;;;;;;;;10029395;28;20154;-70
2023/01/05 18:49:38;;;;;;;43.60;39.75;;;;;;;;;;10034182;28;20040;-70
2023/01/05 18:54:35;;;;;;;45.83;41.80;;;;;;;;;;10041065;28;20062;-70
2023/01/05 18:59:31;;;;;;;45.88;42.40;;;;;;;;;;10037444;28;20047;-70
2023/01/05 19:04:27;;;;;;;45.00;41.55;;;;;;;;;;10028122;28;20126;-70
2023/01/05 19:09:24;;;;;;;45.08;41.55;;;;;;;;;;10029913;28;20783;-70
2023/01/05 19:14:20;;;;;;;47.13;43.10;;;;;;;;;;10038677;28;20103;-70
2023/01/05 19:19:18;;;;;;;49.40;45.25;;;;;;;;;;10031348;28;20052;-70
2023/01/05 19:24:15;;;;;;;48.78;45.45;;;;;;;;;;10035175;28;20075;-70
2023/01/05 19:29:12;;;;;;;46.28;42.80;;;;;;;;;;10033624;28;20489;-70
2023/01/05 19:34:11;;;;;;;53.05;49.22;;;;;;;;;;10029718;28;20064;-70
2023/01/05 19:39:10;;;;;;;52.55;48.70;;;;;;;;;;10030638;28;20102;-70
2023/01/05 19:44:10;;;;;;;55.78;51.47;;;;;;;;;;10037622;28;20502;-70
2023/01/05 19:49:12;;;;;;;55.65;51.28;;;;;;;;;;10025448;28;20075;-70
2023/01/05 19:54:09;;;;;;;54.28;50.40;;;;;;;;;;10026436;28;20085;-70
2023/01/05 19:59:06;;;;;;;54.60;49.63;;;;;;;;;;10018447;28;20051;-69
2023/01/05 20:04:03;;;;;;;53.35;48.47;;;;;;;;;;10022568;28;20055;-69
2023/01/05 20:09:00;;;;;;;51.22;46.78;;;;;;;;;;10020857;28;20909;-70
2023/01/05 20:13:57;;;;;;;52.03;47.95;;;;;;;;;;10026442;28;20573;-67
2023/01/05 20:18:53;;;;;;;51.00;47.10;;;;;;;;;;10032018;28;20059;-70
2023/01/05 20:23:49;;;;;;;47.70;43.92;;;;;;;;;;10030526;28;20494;-70
2023/01/05 20:28:46;;;;;;;48.33;44.55;;;;;;;;;;10031844;28;20094;-70
2023/01/05 20:33:42;;;;;;;43.55;40.00;;;;;;;;;;10035152;28;20524;-70
2023/01/05 20:38:39;;;;;;;42.63;38.72;;;;;;;;;;10026341;28;20466;-70
2023/01/05 20:43:35;;;;;;;42.83;38.58;;;;;;;;;;10031643;28;20554;-70
2023/01/05 20:48:31;;;;;;;44.65;40.05;;;;;;;;;;10023333;28;20055;-69
2023/01/05 20:53:28;;;;;;;39.97;36.58;;;;;;;;;;10029305;28;20605;-69
2023/01/05 20:58:25;;;;;;;40.15;36.33;;;;;;;;;;10021532;28;20052;-70
2023/01/05 21:03:21;;;;;;;39.40;36.03;;;;;;;;;;10028141;28;20480;-69
2023/01/05 21:08:18;;;;;;;37.50;34.67;;;;;;;;;;10027613;28;20051;-69
2023/01/05 21:13:14;;;;;;;41.67;38.15;;;;;;;;;;10033538;28;20126;-69
2023/01/05 21:18:28;;;;;;;40.92;37.72;;;;;;;;;;10033538;28;20052;-69
2023/01/05 21:23:24;;;;;;;43.20;39.75;;;;;;;;;;10031534;28;20048;-68
2023/01/05 21:28:21;;;;;;;43.65;40.22;;;;;;;;;;10028405;28;20462;-70
2023/01/05 21:33:17;;;;;;;43.35;39.75;;;;;;;;;;10029473;28;20494;-70
2023/01/05 21:38:13;;;;;;;43.80;40.13;;;;;;;;;;10031520;28;20040;-69
2023/01/05 21:43:09;;;;;;;43.45;39.60;;;;;;;;;;10028500;28;20044;-69
2023/01/05 21:48:06;;;;;;;45.80;41.83;;;;;;;;;;10027853;28;20525;-70
2023/01/05 21:58:17;;;;;;;41.55;38.72;;;;;;;;;;10030705;28;20413;-68
2023/01/05 22:03:13;;;;;;;42.72;39.83;;;;;;;;;;10029568;28;20048;-69
2023/01/05 22:08:10;;;;;;;44.13;40.63;;;;;;;;;;10026718;28;20130;-69
2023/01/05 22:13:06;;;;;;;42.95;39.75;;;;;;;;;;10031329;28;20043;-69
2023/01/05 22:18:02;;;;;;;46.15;42.90;;;;;;;;;;10041954;28;20122;-70
2023/01/05 22:22:58;;;;;;;45.65;42.38;;;;;;;;;;10042054;28;20060;-71
2023/01/05 22:27:55;;;;;;;48.13;44.97;;;;;;;;;;10035423;28;20138;-68
2023/01/05 22:32:51;;;;;;;49.78;46.45;;;;;;;;;;10033774;28;20468;-68
2023/01/05 22:37:49;;;;;;;48.42;45.25;;;;;;;;;;10033575;28;20055;-68
2023/01/05 22:42:45;;;;;;;50.08;46.22;;;;;;;;;;10036643;28;20071;-68
2023/01/05 22:47:42;;;;;;;51.22;47.55;;;;;;;;;;10035665;28;20051;-68
2023/01/05 22:52:38;;;;;;;54.55;50.58;;;;;;;;;;10026460;28;20473;-69
2023/01/05 22:57:34;;;;;;;53.25;49.75;;;;;;;;;;10030737;28;20495;-69
2023/01/05 23:02:30;;;;;;;57.67;53.72;;;;;;;;;;10038513;28;20141;-69
2023/01/05 23:07:27;;;;;;;53.28;49.53;;;;;;;;;;10034803;28;20103;-69
2023/01/05 23:12:23;;;;;;;53.05;49.53;;;;;;;;;;10036405;28;20057;-69
2023/01/05 23:17:19;;;;;;;54.00;50.22;;;;;;;;;;10036366;28;20048;-69
2023/01/05 23:22:15;;;;;;;54.92;51.08;;;;;;;;;;10034516;28;20376;-70
2023/01/05 23:27:12;;;;;;;55.20;51.25;;;;;;;;;;10035324;28;20044;-69
2023/01/05 23:32:09;;;;;;;55.00;51.45;;;;;;;;;;10039820;28;20412;-70
2023/01/05 23:37:05;;;;;;;54.28;50.70;;;;;;;;;;10035262;28;20055;-68
2023/01/05 23:42:02;;;;;;;53.10;49.78;;;;;;;;;;10034325;28;20532;-69
2023/01/05 23:46:58;;;;;;;51.25;48.10;;;;;;;;;;10034796;28;20131;-69
2023/01/05 23:51:54;;;;;;;53.63;50.22;;;;;;;;;;10025247;28;20576;-69
2023/01/05 23:56:50;;;;;;;52.42;48.63;;;;;;;;;;10022236;28;20134;-69
